sensor_id;sensor_type;location;lat;lon;timestamp;P1;durP1;ratioP1;P2;durP2;ratioP2
16689;SDS011;8458;52.220;9.884;2022-09-09T00:00:53;1.43;;;0.40;;
16689;SDS011;8458;52.220;9.884;2022-09-09T00:03:29;0.67;;;0.30;;
16689;SDS011;8458;52.220;9.884;2022-09-09T00:06:03;0.67;;;0.20;;
16689;SDS011;8458;52.220;9.884;2022-09-09T00:08:40;0.70;;;0.23;;
16689;SDS011;8458;52.220;9.884;2022-09-09T00:11:13;1.63;;;0.40;;
16689;SDS011;8458;52.220;9.884;2022-09-09T00:13:46;0.40;;;0.30;;
16689;SDS011;8458;52.220;9.884;2022-09-09T00:16:17;0.50;;;0.30;;
16689;SDS011;8458;52.220;9.884;2022-09-09T00:18:51;0.30;;;0.30;;
16689;SDS011;8458;52.220;9.884;2022-09-09T00:21:25;0.50;;;0.40;;
16689;SDS011;8458;52.220;9.884;2022-09-09T00:23:58;0.57;;;0.20;;
16689;SDS011;8458;52.220;9.884;2022-09-09T00:26:26;0.83;;;0.30;;
16689;SDS011;8458;52.220;9.884;2022-09-09T00:29:00;0.43;;;0.20;;
16689;SDS011;8458;52.220;9.884;2022-09-09T00:31:31;0.87;;;0.23;;
16689;SDS011;8458;52.220;9.884;2022-09-09T00:34:09;0.97;;;0.47;;
16689;SDS011;8458;52.220;9.884;2022-09-09T00:36:40;1.00;;;0.37;;
16689;SDS011;8458;52.220;9.884;2022-09-09T00:39:09;0.37;;;0.20;;
16689;SDS011;8458;52.220;9.884;2022-09-09T00:41:46;0.73;;;0.23;;
16689;SDS011;8458;52.220;9.884;2022-09-09T00:44:27;1.67;;;0.40;;
16689;SDS011;8458;52.220;9.884;2022-09-09T00:47:12;0.47;;;0.30;;
16689;SDS011;8458;52.220;9.884;2022-09-09T00:49:49;0.57;;;0.30;;
16689;SDS011;8458;52.220;9.884;2022-09-09T00:52:29;1.60;;;0.33;;
16689;SDS011;8458;52.220;9.884;2022-09-09T00:55:05;0.60;;;0.20;;
16689;SDS011;8458;52.220;9.884;2022-09-09T00:57:40;0.60;;;0.30;;
16689;SDS011;8458;52.220;9.884;2022-09-09T01:00:20;1.17;;;0.40;;
16689;SDS011;8458;52.220;9.884;2022-09-09T01:02:52;0.37;;;0.20;;
16689;SDS011;8458;52.220;9.884;2022-09-09T01:05:29;1.07;;;0.47;;
16689;SDS011;8458;52.220;9.884;2022-09-09T01:08:03;1.13;;;0.20;;
16689;SDS011;8458;52.220;9.884;2022-09-09T01:10:39;1.30;;;0.40;;
16689;SDS011;8458;52.220;9.884;2022-09-09T01:13:15;0.50;;;0.40;;
16689;SDS011;8458;52.220;9.884;2022-09-09T01:15:48;1.33;;;0.40;;
16689;SDS011;8458;52.220;9.884;2022-09-09T01:18:15;1.13;;;0.60;;
16689;SDS011;8458;52.220;9.884;2022-09-09T01:20:46;0.73;;;0.50;;
16689;SDS011;8458;52.220;9.884;2022-09-09T01:23:28;1.00;;;0.40;;
16689;SDS011;8458;52.220;9.884;2022-09-09T01:26:11;0.67;;;0.40;;
16689;SDS011;8458;52.220;9.884;2022-09-09T01:28:42;1.27;;;0.50;;
16689;SDS011;8458;52.220;9.884;2022-09-09T01:31:11;1.03;;;0.50;;
16689;SDS011;8458;52.220;9.884;2022-09-09T01:33:43;1.70;;;0.33;;
16689;SDS011;8458;52.220;9.884;2022-09-09T01:36:10;0.77;;;0.50;;
16689;SDS011;8458;52.220;9.884;2022-09-09T01:38:41;0.63;;;0.30;;
16689;SDS011;8458;52.220;9.884;2022-09-09T01:41:08;0.60;;;0.40;;
16689;SDS011;8458;52.220;9.884;2022-09-09T01:43:35;0.87;;;0.40;;
16689;SDS011;8458;52.220;9.884;2022-09-09T01:46:03;0.97;;;0.40;;
16689;SDS011;8458;52.220;9.884;2022-09-09T01:48:30;0.70;;;0.50;;
16689;SDS011;8458;52.220;9.884;2022-09-09T01:50:57;1.60;;;0.40;;
16689;SDS011;8458;52.220;9.884;2022-09-09T01:53:23;1.40;;;0.40;;
16689;SDS011;8458;52.220;9.884;2022-09-09T01:55:52;0.70;;;0.50;;
16689;SDS011;8458;52.220;9.884;2022-09-09T01:58:31;0.67;;;0.40;;
16689;SDS011;8458;52.220;9.884;2022-09-09T02:01:04;0.53;;;0.40;;
16689;SDS011;8458;52.220;9.884;2022-09-09T02:03:38;0.87;;;0.47;;
16689;SDS011;8458;52.220;9.884;2022-09-09T02:06:12;0.40;;;0.40;;
16689;SDS011;8458;52.220;9.884;2022-09-09T02:08:46;1.60;;;0.53;;
16689;SDS011;8458;52.220;9.884;2022-09-09T02:11:15;1.77;;;0.50;;
16689;SDS011;8458;52.220;9.884;2022-09-09T02:13:44;0.60;;;0.40;;
16689;SDS011;8458;52.220;9.884;2022-09-09T02:16:14;0.67;;;0.43;;
16689;SDS011;8458;52.220;9.884;2022-09-09T02:18:47;0.93;;;0.40;;
16689;SDS011;8458;52.220;9.884;2022-09-09T02:21:17;1.10;;;0.33;;
16689;SDS011;8458;52.220;9.884;2022-09-09T02:23:44;1.20;;;0.53;;
16689;SDS011;8458;52.220;9.884;2022-09-09T02:26:14;0.80;;;0.37;;
16689;SDS011;8458;52.220;9.884;2022-09-09T02:28:45;0.70;;;0.30;;
16689;SDS011;8458;52.220;9.884;2022-09-09T02:31:15;0.70;;;0.40;;
16689;SDS011;8458;52.220;9.884;2022-09-09T02:33:45;0.63;;;0.40;;
16689;SDS011;8458;52.220;9.884;2022-09-09T02:36:17;0.70;;;0.40;;
16689;SDS011;8458;52.220;9.884;2022-09-09T02:38:46;1.13;;;0.43;;
16689;SDS011;8458;52.220;9.884;2022-09-09T02:41:15;0.70;;;0.40;;
16689;SDS011;8458;52.220;9.884;2022-09-09T02:43:43;0.70;;;0.40;;
16689;SDS011;8458;52.220;9.884;2022-09-09T02:46:14;1.20;;;0.43;;
16689;SDS011;8458;52.220;9.884;2022-09-09T02:48:55;1.90;;;0.50;;
16689;SDS011;8458;52.220;9.884;2022-09-09T02:51:28;0.83;;;0.50;;
16689;SDS011;8458;52.220;9.884;2022-09-09T02:54:04;1.10;;;0.50;;
16689;SDS011;8458;52.220;9.884;2022-09-09T02:56:39;1.70;;;0.60;;
16689;SDS011;8458;52.220;9.884;2022-09-09T02:59:08;0.80;;;0.53;;
16689;SDS011;8458;52.220;9.884;2022-09-09T03:01:36;1.40;;;0.50;;
16689;SDS011;8458;52.220;9.884;2022-09-09T03:04:05;1.63;;;0.60;;
16689;SDS011;8458;52.220;9.884;2022-09-09T03:06:31;1.03;;;0.50;;
16689;SDS011;8458;52.220;9.884;2022-09-09T03:08:58;2.17;;;0.60;;
16689;SDS011;8458;52.220;9.884;2022-09-09T03:11:26;1.00;;;0.70;;
16689;SDS011;8458;52.220;9.884;2022-09-09T03:13:53;0.73;;;0.50;;
16689;SDS011;8458;52.220;9.884;2022-09-09T03:16:21;1.03;;;0.47;;
16689;SDS011;8458;52.220;9.884;2022-09-09T03:18:48;1.17;;;0.50;;
16689;SDS011;8458;52.220;9.884;2022-09-09T03:21:15;1.03;;;0.57;;
16689;SDS011;8458;52.220;9.884;2022-09-09T03:23:41;1.17;;;0.50;;
16689;SDS011;8458;52.220;9.884;2022-09-09T03:26:09;1.23;;;0.50;;
16689;SDS011;8458;52.220;9.884;2022-09-09T03:28:36;1.37;;;0.50;;
16689;SDS011;8458;52.220;9.884;2022-09-09T03:31:04;1.00;;;0.40;;
16689;SDS011;8458;52.220;9.884;2022-09-09T03:33:31;1.00;;;0.60;;
16689;SDS011;8458;52.220;9.884;2022-09-09T03:36:00;1.67;;;0.60;;
16689;SDS011;8458;52.220;9.884;2022-09-09T03:38:27;2.93;;;0.87;;
16689;SDS011;8458;52.220;9.884;2022-09-09T03:40:54;1.63;;;0.60;;
16689;SDS011;8458;52.220;9.884;2022-09-09T03:43:23;1.77;;;0.70;;
16689;SDS011;8458;52.220;9.884;2022-09-09T03:45:49;1.03;;;0.60;;
16689;SDS011;8458;52.220;9.884;2022-09-09T03:48:16;0.90;;;0.50;;
16689;SDS011;8458;52.220;9.884;2022-09-09T03:50:46;1.23;;;0.53;;
16689;SDS011;8458;52.220;9.884;2022-09-09T03:53:15;1.07;;;0.43;;
16689;SDS011;8458;52.220;9.884;2022-09-09T03:55:44;1.33;;;0.60;;
16689;SDS011;8458;52.220;9.884;2022-09-09T03:58:11;1.07;;;0.50;;
16689;SDS011;8458;52.220;9.884;2022-09-09T04:00:38;1.70;;;0.80;;
16689;SDS011;8458;52.220;9.884;2022-09-09T04:03:07;1.33;;;0.63;;
16689;SDS011;8458;52.220;9.884;2022-09-09T04:05:33;0.67;;;0.40;;
16689;SDS011;8458;52.220;9.884;2022-09-09T04:08:00;1.30;;;0.70;;
16689;SDS011;8458;52.220;9.884;2022-09-09T04:10:28;2.47;;;0.50;;
16689;SDS011;8458;52.220;9.884;2022-09-09T04:12:54;1.70;;;1.03;;
16689;SDS011;8458;52.220;9.884;2022-09-09T04:15:21;0.97;;;0.60;;
16689;SDS011;8458;52.220;9.884;2022-09-09T04:17:47;1.17;;;0.47;;
16689;SDS011;8458;52.220;9.884;2022-09-09T04:20:14;1.17;;;0.60;;
16689;SDS011;8458;52.220;9.884;2022-09-09T04:22:41;2.03;;;0.70;;
16689;SDS011;8458;52.220;9.884;2022-09-09T04:25:07;0.80;;;0.60;;
16689;SDS011;8458;52.220;9.884;2022-09-09T04:27:35;1.73;;;0.60;;
16689;SDS011;8458;52.220;9.884;2022-09-09T04:30:02;1.57;;;0.70;;
16689;SDS011;8458;52.220;9.884;2022-09-09T04:32:29;1.07;;;0.50;;
16689;SDS011;8458;52.220;9.884;2022-09-09T04:34:58;0.87;;;0.60;;
16689;SDS011;8458;52.220;9.884;2022-09-09T04:37:24;2.17;;;0.77;;
16689;SDS011;8458;52.220;9.884;2022-09-09T04:39:51;1.13;;;0.60;;
16689;SDS011;8458;52.220;9.884;2022-09-09T04:42:17;2.60;;;0.60;;
16689;SDS011;8458;52.220;9.884;2022-09-09T04:44:45;0.80;;;0.50;;
16689;SDS011;8458;52.220;9.884;2022-09-09T04:47:12;0.60;;;0.50;;
16689;SDS011;8458;52.220;9.884;2022-09-09T04:49:39;2.00;;;0.70;;
16689;SDS011;8458;52.220;9.884;2022-09-09T04:52:06;1.67;;;0.60;;
16689;SDS011;8458;52.220;9.884;2022-09-09T04:54:32;0.80;;;0.50;;
16689;SDS011;8458;52.220;9.884;2022-09-09T04:57:00;1.43;;;0.67;;
16689;SDS011;8458;52.220;9.884;2022-09-09T04:59:27;0.77;;;0.53;;
16689;SDS011;8458;52.220;9.884;2022-09-09T05:01:55;1.63;;;0.70;;
16689;SDS011;8458;52.220;9.884;2022-09-09T05:04:21;1.67;;;0.90;;
16689;SDS011;8458;52.220;9.884;2022-09-09T05:06:48;2.47;;;0.80;;
16689;SDS011;8458;52.220;9.884;2022-09-09T05:09:14;1.20;;;0.70;;
16689;SDS011;8458;52.220;9.884;2022-09-09T05:11:40;0.77;;;0.60;;
16689;SDS011;8458;52.220;9.884;2022-09-09T05:14:08;2.37;;;0.70;;
16689;SDS011;8458;52.220;9.884;2022-09-09T05:16:36;2.30;;;0.70;;
16689;SDS011;8458;52.220;9.884;2022-09-09T05:19:04;2.53;;;0.57;;
16689;SDS011;8458;52.220;9.884;2022-09-09T05:21:33;2.03;;;0.80;;
16689;SDS011;8458;52.220;9.884;2022-09-09T05:23:59;1.00;;;0.67;;
16689;SDS011;8458;52.220;9.884;2022-09-09T05:26:26;1.60;;;0.70;;
16689;SDS011;8458;52.220;9.884;2022-09-09T05:28:54;1.77;;;0.70;;
16689;SDS011;8458;52.220;9.884;2022-09-09T05:31:21;2.43;;;0.90;;
16689;SDS011;8458;52.220;9.884;2022-09-09T05:33:48;2.23;;;0.90;;
16689;SDS011;8458;52.220;9.884;2022-09-09T05:36:17;2.27;;;0.83;;
16689;SDS011;8458;52.220;9.884;2022-09-09T05:38:45;2.17;;;1.10;;
16689;SDS011;8458;52.220;9.884;2022-09-09T05:41:12;1.73;;;0.70;;
16689;SDS011;8458;52.220;9.884;2022-09-09T05:43:40;2.20;;;1.03;;
16689;SDS011;8458;52.220;9.884;2022-09-09T05:46:10;1.50;;;0.73;;
16689;SDS011;8458;52.220;9.884;2022-09-09T05:48:38;1.00;;;0.70;;
16689;SDS011;8458;52.220;9.884;2022-09-09T05:51:07;2.60;;;0.90;;
16689;SDS011;8458;52.220;9.884;2022-09-09T05:53:36;1.90;;;0.70;;
16689;SDS011;8458;52.220;9.884;2022-09-09T05:56:04;1.40;;;0.77;;
16689;SDS011;8458;52.220;9.884;2022-09-09T05:58:32;3.07;;;1.10;;
16689;SDS011;8458;52.220;9.884;2022-09-09T06:01:03;1.57;;;0.80;;
16689;SDS011;8458;52.220;9.884;2022-09-09T06:03:30;1.40;;;0.70;;
16689;SDS011;8458;52.220;9.884;2022-09-09T06:05:57;1.20;;;0.73;;
16689;SDS011;8458;52.220;9.884;2022-09-09T06:08:24;1.20;;;0.60;;
16689;SDS011;8458;52.220;9.884;2022-09-09T06:10:53;1.90;;;0.80;;
16689;SDS011;8458;52.220;9.884;2022-09-09T06:13:21;3.30;;;1.23;;
16689;SDS011;8458;52.220;9.884;2022-09-09T06:15:50;2.57;;;1.00;;
16689;SDS011;8458;52.220;9.884;2022-09-09T06:18:17;1.53;;;0.80;;
16689;SDS011;8458;52.220;9.884;2022-09-09T06:20:52;3.00;;;1.17;;
16689;SDS011;8458;52.220;9.884;2022-09-09T06:23:20;2.33;;;0.90;;
16689;SDS011;8458;52.220;9.884;2022-09-09T06:25:46;2.17;;;0.90;;
16689;SDS011;8458;52.220;9.884;2022-09-09T06:28:15;1.60;;;0.77;;
16689;SDS011;8458;52.220;9.884;2022-09-09T06:30:42;1.13;;;0.90;;
16689;SDS011;8458;52.220;9.884;2022-09-09T06:33:09;1.80;;;0.70;;
16689;SDS011;8458;52.220;9.884;2022-09-09T06:35:36;1.33;;;0.90;;
16689;SDS011;8458;52.220;9.884;2022-09-09T06:38:02;2.57;;;1.43;;
16689;SDS011;8458;52.220;9.884;2022-09-09T06:40:29;3.23;;;1.40;;
16689;SDS011;8458;52.220;9.884;2022-09-09T06:42:55;2.80;;;1.00;;
16689;SDS011;8458;52.220;9.884;2022-09-09T06:45:26;1.37;;;0.90;;
16689;SDS011;8458;52.220;9.884;2022-09-09T06:47:54;1.40;;;0.90;;
16689;SDS011;8458;52.220;9.884;2022-09-09T06:50:21;1.73;;;0.70;;
16689;SDS011;8458;52.220;9.884;2022-09-09T06:52:48;1.07;;;0.60;;
16689;SDS011;8458;52.220;9.884;2022-09-09T06:55:14;1.73;;;0.60;;
16689;SDS011;8458;52.220;9.884;2022-09-09T06:57:42;0.90;;;0.70;;
16689;SDS011;8458;52.220;9.884;2022-09-09T07:00:10;1.10;;;0.70;;
16689;SDS011;8458;52.220;9.884;2022-09-09T07:02:40;1.30;;;0.57;;
16689;SDS011;8458;52.220;9.884;2022-09-09T07:05:07;1.03;;;0.60;;
16689;SDS011;8458;52.220;9.884;2022-09-09T07:07:34;1.67;;;0.70;;
16689;SDS011;8458;52.220;9.884;2022-09-09T07:10:01;2.10;;;0.70;;
16689;SDS011;8458;52.220;9.884;2022-09-09T07:12:29;1.33;;;0.70;;
16689;SDS011;8458;52.220;9.884;2022-09-09T07:14:55;1.53;;;0.60;;
16689;SDS011;8458;52.220;9.884;2022-09-09T07:17:21;1.53;;;0.80;;
16689;SDS011;8458;52.220;9.884;2022-09-09T07:19:49;0.80;;;0.60;;
16689;SDS011;8458;52.220;9.884;2022-09-09T07:22:16;1.37;;;0.67;;
16689;SDS011;8458;52.220;9.884;2022-09-09T07:24:42;1.53;;;0.70;;
16689;SDS011;8458;52.220;9.884;2022-09-09T07:27:10;2.30;;;0.73;;
16689;SDS011;8458;52.220;9.884;2022-09-09T07:29:36;1.17;;;0.60;;
16689;SDS011;8458;52.220;9.884;2022-09-09T07:32:03;1.70;;;0.80;;
16689;SDS011;8458;52.220;9.884;2022-09-09T07:34:30;1.00;;;0.53;;
16689;SDS011;8458;52.220;9.884;2022-09-09T07:36:57;1.00;;;0.60;;
16689;SDS011;8458;52.220;9.884;2022-09-09T07:39:24;2.33;;;0.70;;
16689;SDS011;8458;52.220;9.884;2022-09-09T07:41:50;2.30;;;0.50;;
16689;SDS011;8458;52.220;9.884;2022-09-09T07:44:17;1.50;;;0.80;;
16689;SDS011;8458;52.220;9.884;2022-09-09T07:46:46;2.73;;;0.80;;
16689;SDS011;8458;52.220;9.884;2022-09-09T07:49:13;2.93;;;0.80;;
16689;SDS011;8458;52.220;9.884;2022-09-09T07:51:41;2.10;;;0.70;;
16689;SDS011;8458;52.220;9.884;2022-09-09T07:54:11;1.47;;;0.60;;
16689;SDS011;8458;52.220;9.884;2022-09-09T07:56:38;1.23;;;0.50;;
16689;SDS011;8458;52.220;9.884;2022-09-09T07:59:06;0.87;;;0.40;;
16689;SDS011;8458;52.220;9.884;2022-09-09T08:01:36;1.07;;;0.60;;
16689;SDS011;8458;52.220;9.884;2022-09-09T08:04:05;1.47;;;0.50;;
16689;SDS011;8458;52.220;9.884;2022-09-09T08:06:36;0.87;;;0.60;;
16689;SDS011;8458;52.220;9.884;2022-09-09T08:09:04;1.37;;;0.77;;
16689;SDS011;8458;52.220;9.884;2022-09-09T08:11:33;1.80;;;0.70;;
16689;SDS011;8458;52.220;9.884;2022-09-09T08:14:01;2.13;;;0.60;;
16689;SDS011;8458;52.220;9.884;2022-09-09T08:16:28;1.00;;;0.60;;
16689;SDS011;8458;52.220;9.884;2022-09-09T08:18:57;1.50;;;0.60;;
16689;SDS011;8458;52.220;9.884;2022-09-09T08:21:24;1.87;;;0.70;;
16689;SDS011;8458;52.220;9.884;2022-09-09T08:23:53;1.77;;;0.60;;
16689;SDS011;8458;52.220;9.884;2022-09-09T08:26:22;0.97;;;0.60;;
16689;SDS011;8458;52.220;9.884;2022-09-09T08:28:50;0.90;;;0.50;;
16689;SDS011;8458;52.220;9.884;2022-09-09T08:31:18;1.80;;;0.60;;
16689;SDS011;8458;52.220;9.884;2022-09-09T08:33:47;1.67;;;0.70;;
16689;SDS011;8458;52.220;9.884;2022-09-09T08:36:15;1.40;;;0.63;;
16689;SDS011;8458;52.220;9.884;2022-09-09T08:38:47;1.00;;;0.50;;
16689;SDS011;8458;52.220;9.884;2022-09-09T08:41:24;1.13;;;0.70;;
16689;SDS011;8458;52.220;9.884;2022-09-09T08:44:03;2.00;;;0.67;;
16689;SDS011;8458;52.220;9.884;2022-09-09T08:46:35;1.37;;;0.70;;
16689;SDS011;8458;52.220;9.884;2022-09-09T08:49:14;1.60;;;0.63;;
16689;SDS011;8458;52.220;9.884;2022-09-09T08:51:50;1.40;;;0.60;;
16689;SDS011;8458;52.220;9.884;2022-09-09T08:54:21;1.67;;;0.60;;
16689;SDS011;8458;52.220;9.884;2022-09-09T08:56:48;0.97;;;0.50;;
16689;SDS011;8458;52.220;9.884;2022-09-09T08:59:17;1.77;;;0.67;;
16689;SDS011;8458;52.220;9.884;2022-09-09T09:01:50;1.87;;;0.60;;
16689;SDS011;8458;52.220;9.884;2022-09-09T09:04:33;1.83;;;0.57;;
16689;SDS011;8458;52.220;9.884;2022-09-09T09:07:11;2.20;;;0.70;;
16689;SDS011;8458;52.220;9.884;2022-09-09T09:09:50;2.03;;;0.60;;
16689;SDS011;8458;52.220;9.884;2022-09-09T09:12:25;1.23;;;0.40;;
16689;SDS011;8458;52.220;9.884;2022-09-09T09:14:56;1.13;;;0.50;;
16689;SDS011;8458;52.220;9.884;2022-09-09T09:17:24;1.20;;;0.53;;
16689;SDS011;8458;52.220;9.884;2022-09-09T09:19:54;1.17;;;0.60;;
16689;SDS011;8458;52.220;9.884;2022-09-09T09:22:21;1.67;;;0.70;;
16689;SDS011;8458;52.220;9.884;2022-09-09T09:24:51;1.37;;;0.60;;
16689;SDS011;8458;52.220;9.884;2022-09-09T09:27:21;1.30;;;0.60;;
16689;SDS011;8458;52.220;9.884;2022-09-09T09:29:58;1.40;;;0.57;;
16689;SDS011;8458;52.220;9.884;2022-09-09T09:32:28;0.83;;;0.50;;
16689;SDS011;8458;52.220;9.884;2022-09-09T09:34:57;1.43;;;0.50;;
16689;SDS011;8458;52.220;9.884;2022-09-09T09:37:28;2.07;;;0.70;;
16689;SDS011;8458;52.220;9.884;2022-09-09T09:40:07;1.80;;;0.60;;
16689;SDS011;8458;52.220;9.884;2022-09-09T09:42:34;1.27;;;0.60;;
16689;SDS011;8458;52.220;9.884;2022-09-09T09:45:08;1.07;;;0.50;;
16689;SDS011;8458;52.220;9.884;2022-09-09T09:47:43;1.67;;;0.50;;
16689;SDS011;8458;52.220;9.884;2022-09-09T09:50:16;1.67;;;0.60;;
16689;SDS011;8458;52.220;9.884;2022-09-09T09:52:51;4.00;;;0.80;;
16689;SDS011;8458;52.220;9.884;2022-09-09T09:55:20;1.27;;;0.70;;
16689;SDS011;8458;52.220;9.884;2022-09-09T09:57:47;1.23;;;0.63;;
16689;SDS011;8458;52.220;9.884;2022-09-09T10:00:16;1.70;;;0.67;;
16689;SDS011;8458;52.220;9.884;2022-09-09T10:02:44;1.93;;;0.70;;
16689;SDS011;8458;52.220;9.884;2022-09-09T10:05:13;1.37;;;0.70;;
16689;SDS011;8458;52.220;9.884;2022-09-09T10:07:41;1.57;;;0.73;;
16689;SDS011;8458;52.220;9.884;2022-09-09T10:10:11;2.23;;;0.60;;
16689;SDS011;8458;52.220;9.884;2022-09-09T10:12:43;1.97;;;0.80;;
16689;SDS011;8458;52.220;9.884;2022-09-09T10:15:22;1.23;;;0.60;;
16689;SDS011;8458;52.220;9.884;2022-09-09T10:17:59;2.30;;;0.80;;
16689;SDS011;8458;52.220;9.884;2022-09-09T10:20:34;1.50;;;0.60;;
16689;SDS011;8458;52.220;9.884;2022-09-09T10:23:12;1.50;;;0.70;;
16689;SDS011;8458;52.220;9.884;2022-09-09T10:25:59;1.63;;;0.63;;
16689;SDS011;8458;52.220;9.884;2022-09-09T10:28:42;1.43;;;0.53;;
16689;SDS011;8458;52.220;9.884;2022-09-09T10:31:31;1.37;;;0.53;;
16689;SDS011;8458;52.220;9.884;2022-09-09T10:34:04;1.93;;;0.70;;
16689;SDS011;8458;52.220;9.884;2022-09-09T10:36:44;1.30;;;0.53;;
16689;SDS011;8458;52.220;9.884;2022-09-09T10:39:15;1.10;;;0.60;;
16689;SDS011;8458;52.220;9.884;2022-09-09T10:41:55;1.77;;;0.87;;
16689;SDS011;8458;52.220;9.884;2022-09-09T10:44:34;1.63;;;0.53;;
16689;SDS011;8458;52.220;9.884;2022-09-09T10:47:16;1.50;;;0.70;;
16689;SDS011;8458;52.220;9.884;2022-09-09T10:50:09;1.57;;;0.80;;
16689;SDS011;8458;52.220;9.884;2022-09-09T10:52:51;1.57;;;0.80;;
16689;SDS011;8458;52.220;9.884;2022-09-09T10:55:25;1.87;;;0.70;;
16689;SDS011;8458;52.220;9.884;2022-09-09T10:57:58;2.77;;;0.67;;
16689;SDS011;8458;52.220;9.884;2022-09-09T11:00:30;1.83;;;0.70;;
16689;SDS011;8458;52.220;9.884;2022-09-09T11:03:06;2.43;;;0.50;;
16689;SDS011;8458;52.220;9.884;2022-09-09T11:05:39;1.47;;;0.50;;
16689;SDS011;8458;52.220;9.884;2022-09-09T11:08:10;3.13;;;0.67;;
16689;SDS011;8458;52.220;9.884;2022-09-09T11:10:41;1.30;;;0.57;;
16689;SDS011;8458;52.220;9.884;2022-09-09T11:13:14;1.40;;;0.50;;
16689;SDS011;8458;52.220;9.884;2022-09-09T11:15:44;1.57;;;0.70;;
16689;SDS011;8458;52.220;9.884;2022-09-09T11:18:18;1.83;;;0.60;;
16689;SDS011;8458;52.220;9.884;2022-09-09T11:20:47;1.80;;;0.60;;
16689;SDS011;8458;52.220;9.884;2022-09-09T11:23:17;2.23;;;0.60;;
16689;SDS011;8458;52.220;9.884;2022-09-09T11:25:50;1.30;;;0.67;;
16689;SDS011;8458;52.220;9.884;2022-09-09T11:28:28;1.90;;;0.67;;
16689;SDS011;8458;52.220;9.884;2022-09-09T11:31:11;1.40;;;0.40;;
16689;SDS011;8458;52.220;9.884;2022-09-09T11:36:55;2.43;;;0.40;;
16689;SDS011;8458;52.220;9.884;2022-09-09T11:42:35;1.33;;;0.50;;
16689;SDS011;8458;52.220;9.884;2022-09-09T11:45:08;1.20;;;0.47;;
16689;SDS011;8458;52.220;9.884;2022-09-09T11:47:37;1.17;;;0.50;;
16689;SDS011;8458;52.220;9.884;2022-09-09T11:50:26;1.37;;;0.43;;
16689;SDS011;8458;52.220;9.884;2022-09-09T11:53:03;1.30;;;0.30;;
16689;SDS011;8458;52.220;9.884;2022-09-09T11:55:32;1.77;;;0.40;;
16689;SDS011;8458;52.220;9.884;2022-09-09T11:58:02;0.93;;;0.40;;
16689;SDS011;8458;52.220;9.884;2022-09-09T12:00:33;1.67;;;0.43;;
16689;SDS011;8458;52.220;9.884;2022-09-09T12:03:02;1.27;;;0.47;;
16689;SDS011;8458;52.220;9.884;2022-09-09T12:05:37;0.43;;;0.30;;
16689;SDS011;8458;52.220;9.884;2022-09-09T12:08:07;0.97;;;0.30;;
16689;SDS011;8458;52.220;9.884;2022-09-09T12:10:36;1.13;;;0.40;;
16689;SDS011;8458;52.220;9.884;2022-09-09T12:13:15;0.73;;;0.40;;
16689;SDS011;8458;52.220;9.884;2022-09-09T12:15:46;0.83;;;0.40;;
16689;SDS011;8458;52.220;9.884;2022-09-09T12:18:14;0.67;;;0.30;;
16689;SDS011;8458;52.220;9.884;2022-09-09T12:20:52;1.00;;;0.40;;
16689;SDS011;8458;52.220;9.884;2022-09-09T12:23:25;0.60;;;0.40;;
16689;SDS011;8458;52.220;9.884;2022-09-09T12:26:08;0.87;;;0.30;;
16689;SDS011;8458;52.220;9.884;2022-09-09T12:28:52;1.57;;;0.50;;
16689;SDS011;8458;52.220;9.884;2022-09-09T12:31:25;1.77;;;0.43;;
16689;SDS011;8458;52.220;9.884;2022-09-09T12:34:04;1.03;;;0.40;;
16689;SDS011;8458;52.220;9.884;2022-09-09T12:36:38;0.70;;;0.30;;
16689;SDS011;8458;52.220;9.884;2022-09-09T12:39:10;0.53;;;0.30;;
16689;SDS011;8458;52.220;9.884;2022-09-09T12:41:50;1.13;;;0.40;;
16689;SDS011;8458;52.220;9.884;2022-09-09T12:44:21;0.40;;;0.30;;
16689;SDS011;8458;52.220;9.884;2022-09-09T12:46:49;1.13;;;0.43;;
16689;SDS011;8458;52.220;9.884;2022-09-09T12:49:26;1.13;;;0.40;;
16689;SDS011;8458;52.220;9.884;2022-09-09T12:52:00;1.50;;;0.50;;
16689;SDS011;8458;52.220;9.884;2022-09-09T12:54:30;1.10;;;0.53;;
16689;SDS011;8458;52.220;9.884;2022-09-09T12:56:57;1.73;;;0.43;;
16689;SDS011;8458;52.220;9.884;2022-09-09T12:59:24;0.60;;;0.40;;
16689;SDS011;8458;52.220;9.884;2022-09-09T13:01:55;1.13;;;0.50;;
16689;SDS011;8458;52.220;9.884;2022-09-09T13:04:22;1.97;;;0.70;;
16689;SDS011;8458;52.220;9.884;2022-09-09T13:06:48;1.13;;;0.50;;
16689;SDS011;8458;52.220;9.884;2022-09-09T13:09:18;0.73;;;0.50;;
16689;SDS011;8458;52.220;9.884;2022-09-09T13:11:46;1.77;;;0.80;;
16689;SDS011;8458;52.220;9.884;2022-09-09T13:14:16;1.60;;;0.80;;
16689;SDS011;8458;52.220;9.884;2022-09-09T13:16:53;2.40;;;0.73;;
16689;SDS011;8458;52.220;9.884;2022-09-09T13:19:22;0.87;;;0.50;;
16689;SDS011;8458;52.220;9.884;2022-09-09T13:21:52;1.33;;;0.60;;
16689;SDS011;8458;52.220;9.884;2022-09-09T13:24:23;1.77;;;0.57;;
16689;SDS011;8458;52.220;9.884;2022-09-09T13:26:54;1.10;;;0.60;;
16689;SDS011;8458;52.220;9.884;2022-09-09T13:29:22;1.93;;;0.57;;
16689;SDS011;8458;52.220;9.884;2022-09-09T13:31:49;0.83;;;0.50;;
16689;SDS011;8458;52.220;9.884;2022-09-09T13:34:25;1.27;;;0.60;;
16689;SDS011;8458;52.220;9.884;2022-09-09T13:36:53;2.20;;;0.60;;
16689;SDS011;8458;52.220;9.884;2022-09-09T13:39:25;1.47;;;0.50;;
16689;SDS011;8458;52.220;9.884;2022-09-09T13:41:51;0.57;;;0.30;;
16689;SDS011;8458;52.220;9.884;2022-09-09T13:44:20;1.23;;;0.53;;
16689;SDS011;8458;52.220;9.884;2022-09-09T13:46:59;1.40;;;0.60;;
16689;SDS011;8458;52.220;9.884;2022-09-09T13:49:28;1.10;;;0.50;;
16689;SDS011;8458;52.220;9.884;2022-09-09T13:52:03;1.67;;;0.40;;
16689;SDS011;8458;52.220;9.884;2022-09-09T13:54:33;5.83;;;0.53;;
16689;SDS011;8458;52.220;9.884;2022-09-09T13:57:00;0.93;;;0.40;;
16689;SDS011;8458;52.220;9.884;2022-09-09T13:59:27;0.90;;;0.50;;
16689;SDS011;8458;52.220;9.884;2022-09-09T14:01:54;1.63;;;0.40;;
16689;SDS011;8458;52.220;9.884;2022-09-09T14:04:20;0.60;;;0.30;;
16689;SDS011;8458;52.220;9.884;2022-09-09T14:06:47;2.00;;;0.50;;
16689;SDS011;8458;52.220;9.884;2022-09-09T14:09:15;1.37;;;0.43;;
16689;SDS011;8458;52.220;9.884;2022-09-09T14:11:44;0.90;;;0.50;;
16689;SDS011;8458;52.220;9.884;2022-09-09T14:14:11;0.87;;;0.40;;
16689;SDS011;8458;52.220;9.884;2022-09-09T14:16:37;2.60;;;0.70;;
16689;SDS011;8458;52.220;9.884;2022-09-09T14:19:04;2.00;;;0.60;;
16689;SDS011;8458;52.220;9.884;2022-09-09T14:21:30;1.13;;;0.50;;
16689;SDS011;8458;52.220;9.884;2022-09-09T14:23:57;1.50;;;0.60;;
16689;SDS011;8458;52.220;9.884;2022-09-09T14:26:24;1.93;;;0.50;;
16689;SDS011;8458;52.220;9.884;2022-09-09T14:28:52;1.07;;;0.60;;
16689;SDS011;8458;52.220;9.884;2022-09-09T14:31:19;1.43;;;0.50;;
16689;SDS011;8458;52.220;9.884;2022-09-09T14:33:46;2.63;;;0.60;;
16689;SDS011;8458;52.220;9.884;2022-09-09T14:36:13;1.53;;;0.60;;
16689;SDS011;8458;52.220;9.884;2022-09-09T14:38:40;1.20;;;0.50;;
16689;SDS011;8458;52.220;9.884;2022-09-09T14:41:07;1.93;;;0.70;;
16689;SDS011;8458;52.220;9.884;2022-09-09T14:43:37;1.13;;;0.50;;
16689;SDS011;8458;52.220;9.884;2022-09-09T14:46:08;1.30;;;0.70;;
16689;SDS011;8458;52.220;9.884;2022-09-09T14:48:35;1.00;;;0.60;;
16689;SDS011;8458;52.220;9.884;2022-09-09T14:51:06;1.37;;;0.67;;
16689;SDS011;8458;52.220;9.884;2022-09-09T14:53:33;1.33;;;0.70;;
16689;SDS011;8458;52.220;9.884;2022-09-09T14:56:03;1.43;;;0.60;;
16689;SDS011;8458;52.220;9.884;2022-09-09T14:58:31;1.00;;;0.50;;
16689;SDS011;8458;52.220;9.884;2022-09-09T15:01:01;0.93;;;0.60;;
16689;SDS011;8458;52.220;9.884;2022-09-09T15:03:30;1.80;;;0.60;;
16689;SDS011;8458;52.220;9.884;2022-09-09T15:05:56;0.63;;;0.40;;
16689;SDS011;8458;52.220;9.884;2022-09-09T15:08:24;1.20;;;0.40;;
16689;SDS011;8458;52.220;9.884;2022-09-09T15:10:51;1.93;;;0.50;;
16689;SDS011;8458;52.220;9.884;2022-09-09T15:13:24;1.10;;;0.27;;
16689;SDS011;8458;52.220;9.884;2022-09-09T15:15:51;0.57;;;0.30;;
16689;SDS011;8458;52.220;9.884;2022-09-09T15:18:19;1.07;;;0.50;;
16689;SDS011;8458;52.220;9.884;2022-09-09T15:20:47;1.07;;;0.43;;
16689;SDS011;8458;52.220;9.884;2022-09-09T15:23:13;0.40;;;0.30;;
16689;SDS011;8458;52.220;9.884;2022-09-09T15:25:49;0.47;;;0.20;;